sensor_id;sensor_type;location;lat;lon;timestamp;pressure;altitude;pressure_sealevel;temperature;humidity
56198;BME280;42700;42.524;12.052;2023-05-23T00:01:01;95872.06;;;18.51;100.00
56198;BME280;42700;42.524;12.052;2023-05-23T00:03:26;96376.91;;;18.70;100.00
56198;BME280;42700;42.524;12.052;2023-05-23T00:05:52;96477.50;;;18.74;100.00
56198;BME280;42700;42.524;12.052;2023-05-23T00:08:18;96479.09;;;18.75;100.00
56198;BME280;42700;42.524;12.052;2023-05-23T00:10:44;96294.91;;;18.67;100.00
56198;BME280;42700;42.524;12.052;2023-05-23T00:13:10;96413.50;;;18.71;100.00
56198;BME280;42700;42.524;12.052;2023-05-23T00:15:37;96559.53;;;18.76;100.00
56198;BME280;42700;42.524;12.052;2023-05-23T00:18:03;96696.50;;;18.83;100.00
56198;BME280;42700;42.524;12.052;2023-05-23T00:20:28;96712.63;;;18.83;100.00
56198;BME280;42700;42.524;12.052;2023-05-23T00:22:54;96996.81;;;18.94;100.00
56198;BME280;42700;42.524;12.052;2023-05-23T00:25:23;97002.19;;;18.94;100.00
56198;BME280;42700;42.524;12.052;2023-05-23T00:27:49;96881.06;;;18.89;100.00
56198;BME280;42700;42.524;12.052;2023-05-23T00:30:14;96825.09;;;18.86;100.00
56198;BME280;42700;42.524;12.052;2023-05-23T00:32:40;96891.03;;;18.89;100.00
56198;BME280;42700;42.524;12.052;2023-05-23T00:35:06;97071.88;;;18.96;100.00
56198;BME280;42700;42.524;12.052;2023-05-23T00:37:31;97181.47;;;19.01;100.00
56198;BME280;42700;42.524;12.052;2023-05-23T00:39:58;97088.59;;;18.98;100.00
56198;BME280;42700;42.524;12.052;2023-05-23T00:42:24;97300.75;;;19.06;100.00
56198;BME280;42700;42.524;12.052;2023-05-23T00:44:49;97240.16;;;19.04;100.00
56198;BME280;42700;42.524;12.052;2023-05-23T00:47:15;97192.78;;;19.03;100.00
56198;BME280;42700;42.524;12.052;2023-05-23T00:49:41;97253.63;;;19.04;100.00
56198;BME280;42700;42.524;12.052;2023-05-23T00:52:07;97268.69;;;19.05;100.00
56198;BME280;42700;42.524;12.052;2023-05-23T00:54:33;97187.41;;;19.03;100.00
56198;BME280;42700;42.524;12.052;2023-05-23T00:57:00;97144.38;;;19.03;100.00
56198;BME280;42700;42.524;12.052;2023-05-23T00:59:26;97189.84;;;19.04;100.00
56198;BME280;42700;42.524;12.052;2023-05-23T01:01:52;97048.00;;;18.99;100.00
56198;BME280;42700;42.524;12.052;2023-05-23T01:04:18;96634.63;;;18.83;100.00
56198;BME280;42700;42.524;12.052;2023-05-23T01:06:44;96732.59;;;18.87;100.00
56198;BME280;42700;42.524;12.052;2023-05-23T01:09:17;96460.28;;;18.75;100.00
56198;BME280;42700;42.524;12.052;2023-05-23T01:14:18;96308.09;;;18.69;100.00
56198;BME280;42700;42.524;12.052;2023-05-23T01:16:49;96323.13;;;18.70;100.00
56198;BME280;42700;42.524;12.052;2023-05-23T01:22:02;96547.47;;;18.79;100.00
56198;BME280;42700;42.524;12.052;2023-05-23T01:27:22;96444.69;;;18.72;100.00
56198;BME280;42700;42.524;12.052;2023-05-23T01:29:55;96282.78;;;18.65;100.00
56198;BME280;42700;42.524;12.052;2023-05-23T01:32:22;96134.13;;;18.59;100.00
56198;BME280;42700;42.524;12.052;2023-05-23T01:34:49;96122.56;;;18.58;100.00
56198;BME280;42700;42.524;12.052;2023-05-23T01:37:17;96106.41;;;18.58;100.00
56198;BME280;42700;42.524;12.052;2023-05-23T01:39:43;96033.31;;;18.56;100.00
56198;BME280;42700;42.524;12.052;2023-05-23T01:42:09;95908.63;;;18.52;100.00
56198;BME280;42700;42.524;12.052;2023-05-23T01:44:35;95879.34;;;18.51;100.00
56198;BME280;42700;42.524;12.052;2023-05-23T01:47:01;95872.34;;;18.50;100.00
56198;BME280;42700;42.524;12.052;2023-05-23T01:49:28;95876.91;;;18.49;100.00
56198;BME280;42700;42.524;12.052;2023-05-23T01:51:55;95817.53;;;18.46;100.00
56198;BME280;42700;42.524;12.052;2023-05-23T01:54:20;95765.13;;;18.43;100.00
56198;BME280;42700;42.524;12.052;2023-05-23T01:56:46;95823.72;;;18.46;100.00
56198;BME280;42700;42.524;12.052;2023-05-23T01:59:12;96002.97;;;18.56;100.00
56198;BME280;42700;42.524;12.052;2023-05-23T02:01:38;96191.38;;;18.65;100.00
56198;BME280;42700;42.524;12.052;2023-05-23T02:04:03;96390.09;;;18.71;100.00
56198;BME280;42700;42.524;12.052;2023-05-23T02:06:29;96283.34;;;18.67;100.00
56198;BME280;42700;42.524;12.052;2023-05-23T02:08:56;96240.31;;;18.61;100.00
56198;BME280;42700;42.524;12.052;2023-05-23T02:11:21;96066.09;;;18.53;100.00
56198;BME280;42700;42.524;12.052;2023-05-23T02:13:47;96022.56;;;18.51;100.00
56198;BME280;42700;42.524;12.052;2023-05-23T02:16:12;96054.56;;;18.53;100.00
56198;BME280;42700;42.524;12.052;2023-05-23T02:18:38;95994.06;;;18.50;100.00
56198;BME280;42700;42.524;12.052;2023-05-23T02:21:04;95923.66;;;18.48;100.00
56198;BME280;42700;42.524;12.052;2023-05-23T02:23:29;95856.75;;;18.47;100.00
56198;BME280;42700;42.524;12.052;2023-05-23T02:25:55;95772.13;;;18.44;100.00
56198;BME280;42700;42.524;12.052;2023-05-23T02:28:21;95702.81;;;18.41;100.00
56198;BME280;42700;42.524;12.052;2023-05-23T02:30:46;95837.94;;;18.47;100.00
56198;BME280;42700;42.524;12.052;2023-05-23T02:33:12;95832.28;;;18.48;100.00
56198;BME280;42700;42.524;12.052;2023-05-23T02:35:38;95820.75;;;18.48;100.00
56198;BME280;42700;42.524;12.052;2023-05-23T02:38:04;95747.94;;;18.44;100.00
56198;BME280;42700;42.524;12.052;2023-05-23T02:40:29;95548.06;;;18.35;100.00
56198;BME280;42700;42.524;12.052;2023-05-23T02:42:55;95534.13;;;18.33;100.00
56198;BME280;42700;42.524;12.052;2023-05-23T02:45:21;95513.19;;;18.30;100.00
56198;BME280;42700;42.524;12.052;2023-05-23T02:47:47;95561.78;;;18.33;100.00
56198;BME280;42700;42.524;12.052;2023-05-23T02:50:13;95611.75;;;18.34;100.00
56198;BME280;42700;42.524;12.052;2023-05-23T02:52:38;95514.81;;;18.31;100.00
56198;BME280;42700;42.524;12.052;2023-05-23T02:55:06;95537.38;;;18.30;100.00
56198;BME280;42700;42.524;12.052;2023-05-23T02:57:32;95429.16;;;18.24;100.00
56198;BME280;42700;42.524;12.052;2023-05-23T02:59:57;95046.66;;;18.06;100.00
56198;BME280;42700;42.524;12.052;2023-05-23T03:02:23;94740.31;;;17.88;100.00
56198;BME280;42700;42.524;12.052;2023-05-23T03:04:48;94682.94;;;17.84;100.00
56198;BME280;42700;42.524;12.052;2023-05-23T03:07:15;94596.03;;;17.80;100.00
56198;BME280;42700;42.524;12.052;2023-05-23T03:09:40;94518.81;;;17.77;100.00
56198;BME280;42700;42.524;12.052;2023-05-23T03:12:06;94583.72;;;17.79;100.00
56198;BME280;42700;42.524;12.052;2023-05-23T03:14:31;94552.63;;;17.78;100.00
56198;BME280;42700;42.524;12.052;2023-05-23T03:16:57;94444.31;;;17.74;100.00
56198;BME280;42700;42.524;12.052;2023-05-23T03:19:22;94494.97;;;17.76;100.00
56198;BME280;42700;42.524;12.052;2023-05-23T03:21:48;94566.31;;;17.77;100.00
56198;BME280;42700;42.524;12.052;2023-05-23T03:24:15;94650.00;;;17.79;100.00
56198;BME280;42700;42.524;12.052;2023-05-23T03:26:40;94641.47;;;17.77;100.00
56198;BME280;42700;42.524;12.052;2023-05-23T03:29:06;94603.69;;;17.73;100.00
56198;BME280;42700;42.524;12.052;2023-05-23T03:31:31;94700.00;;;17.75;100.00
56198;BME280;42700;42.524;12.052;2023-05-23T03:33:57;94772.16;;;17.76;100.00
56198;BME280;42700;42.524;12.052;2023-05-23T03:36:22;94484.25;;;17.62;100.00
56198;BME280;42700;42.524;12.052;2023-05-23T03:38:50;94377.66;;;17.53;100.00
56198;BME280;42700;42.524;12.052;2023-05-23T03:41:15;94440.13;;;17.54;100.00
56198;BME280;42700;42.524;12.052;2023-05-23T03:43:42;94494.59;;;17.55;100.00
56198;BME280;42700;42.524;12.052;2023-05-23T03:46:08;94578.25;;;17.57;100.00
56198;BME280;42700;42.524;12.052;2023-05-23T03:48:33;94621.16;;;17.57;100.00
56198;BME280;42700;42.524;12.052;2023-05-23T03:50:59;94608.34;;;17.53;100.00
56198;BME280;42700;42.524;12.052;2023-05-23T03:53:24;94586.38;;;17.51;100.00
56198;BME280;42700;42.524;12.052;2023-05-23T03:55:50;94670.03;;;17.53;100.00
56198;BME280;42700;42.524;12.052;2023-05-23T03:58:18;94778.38;;;17.58;100.00
56198;BME280;42700;42.524;12.052;2023-05-23T04:00:44;94826.66;;;17.58;100.00
56198;BME280;42700;42.524;12.052;2023-05-23T04:03:10;94709.78;;;17.51;100.00
56198;BME280;42700;42.524;12.052;2023-05-23T04:05:38;94621.34;;;17.46;100.00
56198;BME280;42700;42.524;12.052;2023-05-23T04:08:04;94670.72;;;17.45;100.00
56198;BME280;42700;42.524;12.052;2023-05-23T04:10:29;94556.56;;;17.39;100.00
56198;BME280;42700;42.524;12.052;2023-05-23T04:12:55;94755.47;;;17.46;100.00
56198;BME280;42700;42.524;12.052;2023-05-23T04:15:21;94833.47;;;17.50;100.00
56198;BME280;42700;42.524;12.052;2023-05-23T04:17:46;95003.72;;;17.58;100.00
56198;BME280;42700;42.524;12.052;2023-05-23T04:20:12;95168.94;;;17.64;100.00
56198;BME280;42700;42.524;12.052;2023-05-23T04:22:37;95337.38;;;17.72;100.00
56198;BME280;42700;42.524;12.052;2023-05-23T04:25:03;95482.28;;;17.77;100.00
56198;BME280;42700;42.524;12.052;2023-05-23T04:27:29;95531.16;;;17.79;100.00
56198;BME280;42700;42.524;12.052;2023-05-23T04:29:55;95555.31;;;17.79;100.00
56198;BME280;42700;42.524;12.052;2023-05-23T04:32:22;95602.53;;;17.80;100.00
56198;BME280;42700;42.524;12.052;2023-05-23T04:34:48;95694.06;;;17.84;100.00
56198;BME280;42700;42.524;12.052;2023-05-23T04:37:14;95765.78;;;17.88;100.00
56198;BME280;42700;42.524;12.052;2023-05-23T04:39:41;95902.69;;;17.94;100.00
56198;BME280;42700;42.524;12.052;2023-05-23T04:42:06;95945.13;;;17.97;100.00
56198;BME280;42700;42.524;12.052;2023-05-23T04:44:32;96108.44;;;18.05;100.00
56198;BME280;42700;42.524;12.052;2023-05-23T04:46:58;96156.25;;;18.08;100.00
56198;BME280;42700;42.524;12.052;2023-05-23T04:49:23;96232.53;;;18.12;100.00
56198;BME280;42700;42.524;12.052;2023-05-23T04:51:49;96392.69;;;18.18;100.00
56198;BME280;42700;42.524;12.052;2023-05-23T04:54:15;96524.97;;;18.25;100.00
56198;BME280;42700;42.524;12.052;2023-05-23T04:56:40;96654.78;;;18.31;100.00
56198;BME280;42700;42.524;12.052;2023-05-23T04:59:06;96831.47;;;18.41;100.00
56198;BME280;42700;42.524;12.052;2023-05-23T05:01:33;97023.53;;;18.50;100.00
56198;BME280;42700;42.524;12.052;2023-05-23T05:03:58;97260.88;;;18.62;100.00
56198;BME280;42700;42.524;12.052;2023-05-23T05:06:24;97538.44;;;18.76;100.00
56198;BME280;42700;42.524;12.052;2023-05-23T05:08:51;97852.78;;;18.91;100.00
56198;BME280;42700;42.524;12.052;2023-05-23T05:11:17;97961.16;;;18.98;100.00
56198;BME280;42700;42.524;12.052;2023-05-23T05:13:42;98064.19;;;19.06;100.00
56198;BME280;42700;42.524;12.052;2023-05-23T05:16:08;98591.63;;;19.32;100.00
56198;BME280;42700;42.524;12.052;2023-05-23T05:18:34;98973.25;;;19.52;100.00
56198;BME280;42700;42.524;12.052;2023-05-23T05:21:00;99160.22;;;19.64;100.00
56198;BME280;42700;42.524;12.052;2023-05-23T05:23:26;99413.25;;;19.81;100.00
56198;BME280;42700;42.524;12.052;2023-05-23T05:25:54;99182.25;;;19.75;100.00
56198;BME280;42700;42.524;12.052;2023-05-23T05:28:20;99727.03;;;20.01;100.00
56198;BME280;42700;42.524;12.052;2023-05-23T05:30:46;99820.09;;;20.12;100.00
56198;BME280;42700;42.524;12.052;2023-05-23T05:33:12;100194.34;;;20.33;100.00
56198;BME280;42700;42.524;12.052;2023-05-23T05:35:38;100177.44;;;20.39;100.00
56198;BME280;42700;42.524;12.052;2023-05-23T05:38:03;100013.22;;;20.36;100.00
56198;BME280;42700;42.524;12.052;2023-05-23T05:40:29;100532.56;;;20.65;100.00
56198;BME280;42700;42.524;12.052;2023-05-23T05:42:55;100665.16;;;20.78;100.00
56198;BME280;42700;42.524;12.052;2023-05-23T05:45:20;100616.88;;;20.83;100.00
56198;BME280;42700;42.524;12.052;2023-05-23T05:47:46;100286.16;;;20.79;100.00
56198;BME280;42700;42.524;12.052;2023-05-23T05:50:11;100783.63;;;21.06;100.00
56198;BME280;42700;42.524;12.052;2023-05-23T05:52:37;100764.72;;;21.14;100.00
56198;BME280;42700;42.524;12.052;2023-05-23T05:55:07;100819.41;;;21.25;100.00
56198;BME280;42700;42.524;12.052;2023-05-23T05:57:34;100844.59;;;21.33;100.00
56198;BME280;42700;42.524;12.052;2023-05-23T06:00:06;100892.72;;;21.38;100.00
56198;BME280;42700;42.524;12.052;2023-05-23T06:02:40;100936.69;;;21.48;100.00
56198;BME280;42700;42.524;12.052;2023-05-23T06:05:13;101119.88;;;21.63;100.00
56198;BME280;42700;42.524;12.052;2023-05-23T06:07:41;101082.34;;;21.68;100.00
56198;BME280;42700;42.524;12.052;2023-05-23T06:10:06;101311.47;;;21.84;100.00
56198;BME280;42700;42.524;12.052;2023-05-23T06:12:33;101440.91;;;21.97;100.00
56198;BME280;42700;42.524;12.052;2023-05-23T06:14:59;101440.94;;;22.05;100.00
56198;BME280;42700;42.524;12.052;2023-05-23T06:17:24;101183.38;;;22.01;100.00
56198;BME280;42700;42.524;12.052;2023-05-23T06:19:50;101624.06;;;22.22;100.00
56198;BME280;42700;42.524;12.052;2023-05-23T06:22:15;101284.69;;;22.15;100.00
56198;BME280;42700;42.524;12.052;2023-05-23T06:24:41;101040.13;;;22.16;100.00
56198;BME280;42700;42.524;12.052;2023-05-23T06:27:06;101720.75;;;22.48;100.00
56198;BME280;42700;42.524;12.052;2023-05-23T06:29:32;101739.78;;;22.56;100.00
56198;BME280;42700;42.524;12.052;2023-05-23T06:31:59;101316.59;;;22.46;100.00
56198;BME280;42700;42.524;12.052;2023-05-23T06:34:25;101746.66;;;22.69;100.00
56198;BME280;42700;42.524;12.052;2023-05-23T06:36:50;101639.84;;;22.71;100.00
56198;BME280;42700;42.524;12.052;2023-05-23T06:39:16;101547.72;;;22.71;100.00
56198;BME280;42700;42.524;12.052;2023-05-23T06:41:41;101988.03;;;22.93;100.00
56198;BME280;42700;42.524;12.052;2023-05-23T06:44:07;101848.56;;;23.06;100.00
56198;BME280;42700;42.524;12.052;2023-05-23T06:46:32;101574.78;;;22.97;100.00
56198;BME280;42700;42.524;12.052;2023-05-23T06:48:58;102078.75;;;23.17;100.00
56198;BME280;42700;42.524;12.052;2023-05-23T06:51:23;102221.28;;;23.29;100.00
56198;BME280;42700;42.524;12.052;2023-05-23T06:53:49;101912.28;;;23.28;100.00
56198;BME280;42700;42.524;12.052;2023-05-23T06:56:14;101685.84;;;23.15;100.00
56198;BME280;42700;42.524;12.052;2023-05-23T06:58:40;102279.63;;;23.33;100.00
56198;BME280;42700;42.524;12.052;2023-05-23T07:01:05;102301.81;;;23.47;100.00
56198;BME280;42700;42.524;12.052;2023-05-23T07:03:31;101895.94;;;23.37;100.00
56198;BME280;42700;42.524;12.052;2023-05-23T07:05:57;102628.81;;;23.70;100.00
56198;BME280;42700;42.524;12.052;2023-05-23T07:08:23;102171.09;;;23.61;100.00
56198;BME280;42700;42.524;12.052;2023-05-23T07:10:48;102501.69;;;23.75;100.00
56198;BME280;42700;42.524;12.052;2023-05-23T07:13:13;102384.97;;;23.75;100.00
56198;BME280;42700;42.524;12.052;2023-05-23T07:15:39;103111.00;;;24.02;100.00
56198;BME280;42700;42.524;12.052;2023-05-23T07:18:05;102067.84;;;23.63;100.00
56198;BME280;42700;42.524;12.052;2023-05-23T07:20:31;102262.00;;;23.75;100.00
56198;BME280;42700;42.524;12.052;2023-05-23T07:22:57;102989.25;;;24.07;100.00
56198;BME280;42700;42.524;12.052;2023-05-23T07:25:23;102363.25;;;23.75;100.00
56198;BME280;42700;42.524;12.052;2023-05-23T07:27:48;103387.59;;;24.18;100.00
56198;BME280;42700;42.524;12.052;2023-05-23T07:30:14;103620.31;;;24.40;100.00
56198;BME280;42700;42.524;12.052;2023-05-23T07:32:40;103574.84;;;24.54;100.00
56198;BME280;42700;42.524;12.052;2023-05-23T07:35:06;103643.56;;;24.67;100.00
56198;BME280;42700;42.524;12.052;2023-05-23T07:37:31;103491.91;;;24.71;100.00
56198;BME280;42700;42.524;12.052;2023-05-23T07:39:57;103807.44;;;24.80;100.00
56198;BME280;42700;42.524;12.052;2023-05-23T07:42:22;104410.84;;;24.98;100.00
56198;BME280;42700;42.524;12.052;2023-05-23T07:44:48;104181.81;;;24.93;100.00
56198;BME280;42700;42.524;12.052;2023-05-23T07:47:13;103864.56;;;24.92;100.00
56198;BME280;42700;42.524;12.052;2023-05-23T07:49:40;104330.41;;;25.07;100.00
56198;BME280;42700;42.524;12.052;2023-05-23T07:52:06;104607.06;;;25.06;100.00
56198;BME280;42700;42.524;12.052;2023-05-23T07:54:31;104936.13;;;25.09;100.00
56198;BME280;42700;42.524;12.052;2023-05-23T07:56:57;105431.03;;;25.33;100.00
56198;BME280;42700;42.524;12.052;2023-05-23T07:59:22;105896.03;;;25.63;100.00
56198;BME280;42700;42.524;12.052;2023-05-23T08:01:48;104188.75;;;25.21;100.00
56198;BME280;42700;42.524;12.052;2023-05-23T08:04:15;105157.44;;;25.54;100.00
56198;BME280;42700;42.524;12.052;2023-05-23T08:06:41;105423.94;;;25.76;100.00
56198;BME280;42700;42.524;12.052;2023-05-23T08:09:06;105836.41;;;25.91;100.00
56198;BME280;42700;42.524;12.052;2023-05-23T08:11:32;105625.28;;;25.99;100.00
56198;BME280;42700;42.524;12.052;2023-05-23T08:13:57;106273.50;;;26.28;100.00
56198;BME280;42700;42.524;12.052;2023-05-23T08:16:24;104254.16;;;25.56;100.00
56198;BME280;42700;42.524;12.052;2023-05-23T08:18:50;106566.06;;;26.32;100.00
56198;BME280;42700;42.524;12.052;2023-05-23T08:21:15;106442.56;;;26.49;100.00
56198;BME280;42700;42.524;12.052;2023-05-23T08:23:41;106631.06;;;26.65;100.00
56198;BME280;42700;42.524;12.052;2023-05-23T08:26:06;106532.31;;;26.76;100.00
56198;BME280;42700;42.524;12.052;2023-05-23T08:28:32;106803.84;;;26.87;100.00
56198;BME280;42700;42.524;12.052;2023-05-23T08:30:58;107328.41;;;27.03;100.00
56198;BME280;42700;42.524;12.052;2023-05-23T08:33:25;107170.78;;;27.07;100.00
56198;BME280;42700;42.524;12.052;2023-05-23T08:35:51;108035.97;;;27.36;100.00
56198;BME280;42700;42.524;12.052;2023-05-23T08:38:16;107849.03;;;27.42;100.00
56198;BME280;42700;42.524;12.052;2023-05-23T08:40:44;107923.47;;;27.52;100.00
56198;BME280;42700;42.524;12.052;2023-05-23T08:43:13;107932.44;;;27.57;100.00
56198;BME280;42700;42.524;12.052;2023-05-23T08:45:39;107139.66;;;27.36;100.00
56198;BME280;42700;42.524;12.052;2023-05-23T08:48:05;108180.63;;;27.82;100.00
56198;BME280;42700;42.524;12.052;2023-05-23T08:50:33;107418.03;;;27.71;100.00
56198;BME280;42700;42.524;12.052;2023-05-23T08:52:59;107431.41;;;27.78;100.00
56198;BME280;42700;42.524;12.052;2023-05-23T08:55:27;107659.00;;;27.87;100.00
56198;BME280;42700;42.524;12.052;2023-05-23T08:58:01;108298.50;;;28.08;100.00
56198;BME280;42700;42.524;12.052;2023-05-23T09:00:27;108608.34;;;28.23;100.00
56198;BME280;42700;42.524;12.052;2023-05-23T09:02:53;108514.94;;;28.38;100.00
56198;BME280;42700;42.524;12.052;2023-05-23T09:05:19;107682.81;;;28.11;100.00
56198;BME280;42700;42.524;12.052;2023-05-23T09:07:45;109304.13;;;28.63;100.00
56198;BME280;42700;42.524;12.052;2023-05-23T09:10:15;107549.84;;;28.07;100.00
56198;BME280;42700;42.524;12.052;2023-05-23T09:12:46;108494.97;;;28.33;100.00
56198;BME280;42700;42.524;12.052;2023-05-23T09:15:12;108412.50;;;28.48;100.00
56198;BME280;42700;42.524;12.052;2023-05-23T09:17:37;109178.75;;;28.82;100.00
56198;BME280;42700;42.524;12.052;2023-05-23T09:20:22;109535.63;;;29.06;100.00
56198;BME280;42700;42.524;12.052;2023-05-23T09:22:47;109425.00;;;29.15;100.00
56198;BME280;42700;42.524;12.052;2023-05-23T09:25:13;108938.91;;;29.11;100.00
56198;BME280;42700;42.524;12.052;2023-05-23T09:27:39;108861.41;;;29.04;100.00
56198;BME280;42700;42.524;12.052;2023-05-23T09:30:09;109263.25;;;29.15;100.00
56198;BME280;42700;42.524;12.052;2023-05-23T09:32:35;110383.75;;;29.56;100.00
56198;BME280;42700;42.524;12.052;2023-05-23T09:35:01;107956.00;;;28.83;100.00
56198;BME280;42700;42.524;12.052;2023-05-23T09:37:30;106457.41;;;28.43;100.00
56198;BME280;42700;42.524;12.052;2023-05-23T09:39:58;106074.81;;;28.35;100.00
56198;BME280;42700;42.524;12.052;2023-05-23T09:42:24;105793.53;;;28.28;100.00
56198;BME280;42700;42.524;12.052;2023-05-23T09:44:50;107628.38;;;28.79;100.00
56198;BME280;42700;42.524;12.052;2023-05-23T09:47:15;107572.72;;;28.79;100.00
56198;BME280;42700;42.524;12.052;2023-05-23T09:49:44;107922.06;;;28.87;100.00
56198;BME280;42700;42.524;12.052;2023-05-23T09:52:10;108582.84;;;29.02;100.00
56198;BME280;42700;42.524;12.052;2023-05-23T09:54:37;108543.63;;;29.00;100.00
56198;BME280;42700;42.524;12.052;2023-05-23T09:57:03;109055.81;;;29.15;100.00
56198;BME280;42700;42.524;12.052;2023-05-23T09:59:33;109985.09;;;29.44;100.00
56198;BME280;42700;42.524;12.052;2023-05-23T10:01:59;110593.28;;;29.69;100.00
56198;BME280;42700;42.524;12.052;2023-05-23T10:04:30;111538.13;;;30.03;100.00
56198;BME280;42700;42.524;12.052;2023-05-23T10:07:00;110692.19;;;29.89;100.00
56198;BME280;42700;42.524;12.052;2023-05-23T10:09:30;111130.78;;;30.08;100.00
56198;BME280;42700;42.524;12.052;2023-05-23T10:14:31;111593.69;;;30.40;100.00
56198;BME280;42700;42.524;12.052;2023-05-23T10:17:04;112123.84;;;30.30;100.00
56198;BME280;42700;42.524;12.052;2023-05-23T10:19:37;112785.63;;;30.66;100.00
56198;BME280;42700;42.524;12.052;2023-05-23T10:22:05;112637.59;;;30.82;100.00
56198;BME280;42700;42.524;12.052;2023-05-23T10:24:31;111853.47;;;30.68;100.00
56198;BME280;42700;42.524;12.052;2023-05-23T10:26:58;112469.16;;;30.92;100.00
56198;BME280;42700;42.524;12.052;2023-05-23T10:29:24;111378.53;;;30.51;100.00
56198;BME280;42700;42.524;12.052;2023-05-23T10:31:49;112315.56;;;31.11;100.00
56198;BME280;42700;42.524;12.052;2023-05-23T10:34:26;112513.97;;;31.20;100.00
56198;BME280;42700;42.524;12.052;2023-05-23T10:36:55;112723.28;;;31.26;100.00
56198;BME280;42700;42.524;12.052;2023-05-23T10:39:32;112639.44;;;31.46;100.00
56198;BME280;42700;42.524;12.052;2023-05-23T10:42:01;112417.50;;;31.52;100.00
56198;BME280;42700;42.524;12.052;2023-05-23T10:44:28;111175.66;;;31.18;100.00
56198;BME280;42700;42.524;12.052;2023-05-23T10:46:55;111609.56;;;31.28;100.00
56198;BME280;42700;42.524;12.052;2023-05-23T10:49:41;111897.69;;;31.32;100.00
56198;BME280;42700;42.524;12.052;2023-05-23T10:52:08;111636.91;;;31.13;100.00
56198;BME280;42700;42.524;12.052;2023-05-23T10:54:34;112501.44;;;31.34;100.00
56198;BME280;42700;42.524;12.052;2023-05-23T10:57:03;113517.13;;;31.51;100.00
56198;BME280;42700;42.524;12.052;2023-05-23T10:59:29;113745.03;;;31.55;100.00
56198;BME280;42700;42.524;12.052;2023-05-23T11:01:55;112514.00;;;31.23;100.00
56198;BME280;42700;42.524;12.052;2023-05-23T11:04:24;113563.84;;;31.70;100.00
56198;BME280;42700;42.524;12.052;2023-05-23T11:06:52;111495.50;;;30.98;100.00
56198;BME280;42700;42.524;12.052;2023-05-23T11:09:18;112118.09;;;30.97;100.00
56198;BME280;42700;42.524;12.052;2023-05-23T11:12:01;110624.59;;;30.66;100.00
56198;BME280;42700;42.524;12.052;2023-05-23T11:14:50;113302.28;;;31.51;100.00
56198;BME280;42700;42.524;12.052;2023-05-23T11:17:28;112137.81;;;31.19;100.00
56198;BME280;42700;42.524;12.052;2023-05-23T11:19:58;113920.06;;;32.08;100.00
56198;BME280;42700;42.524;12.052;2023-05-23T11:22:28;113580.03;;;32.08;100.00
56198;BME280;42700;42.524;12.052;2023-05-23T11:24:57;114459.97;;;32.35;100.00
56198;BME280;42700;42.524;12.052;2023-05-23T11:29:58;115042.91;;;32.04;100.00
56198;BME280;42700;42.524;12.052;2023-05-23T11:32:26;116242.78;;;32.65;100.00
56198;BME280;42700;42.524;12.052;2023-05-23T11:34:52;115498.09;;;32.47;100.00
56198;BME280;42700;42.524;12.052;2023-05-23T11:37:17;115428.63;;;32.54;100.00
56198;BME280;42700;42.524;12.052;2023-05-23T11:39:43;114821.88;;;32.28;100.00
56198;BME280;42700;42.524;12.052;2023-05-23T11:42:08;114314.06;;;32.22;100.00
56198;BME280;42700;42.524;12.052;2023-05-23T11:44:34;115166.38;;;32.38;100.00
56198;BME280;42700;42.524;12.052;2023-05-23T11:47:00;115614.19;;;32.77;100.00
56198;BME280;42700;42.524;12.052;2023-05-23T11:49:37;114268.50;;;32.49;100.00
56198;BME280;42700;42.524;12.052;2023-05-23T11:52:03;114434.44;;;32.39;100.00
56198;BME280;42700;42.524;12.052;2023-05-23T11:54:29;114990.84;;;32.40;100.00
56198;BME280;42700;42.524;12.052;2023-05-23T11:56:55;116405.56;;;32.87;100.00
56198;BME280;42700;42.524;12.052;2023-05-23T11:59:21;111409.59;;;31.27;100.00
56198;BME280;42700;42.524;12.052;2023-05-23T12:01:47;115281.88;;;32.47;100.00
56198;BME280;42700;42.524;12.052;2023-05-23T12:04:12;115834.41;;;32.68;100.00
56198;BME280;42700;42.524;12.052;2023-05-23T12:06:39;115122.22;;;32.68;100.00
56198;BME280;42700;42.524;12.052;2023-05-23T12:09:06;116649.75;;;33.35;100.00
56198;BME280;42700;42.524;12.052;2023-05-23T12:11:32;115436.94;;;32.98;100.00
56198;BME280;42700;42.524;12.052;2023-05-23T12:13:57;115725.00;;;32.56;100.00
56198;BME280;42700;42.524;12.052;2023-05-23T12:16:26;116590.81;;;33.12;100.00
56198;BME280;42700;42.524;12.052;2023-05-23T12:18:52;117545.31;;;33.43;100.00
56198;BME280;42700;42.524;12.052;2023-05-23T12:21:18;117166.16;;;33.61;100.00
56198;BME280;42700;42.524;12.052;2023-05-23T12:23:43;114707.63;;;32.75;100.00
56198;BME280;42700;42.524;12.052;2023-05-23T12:26:09;114359.53;;;32.49;100.00
56198;BME280;42700;42.524;12.052;2023-05-23T12:31:34;117155.59;;;33.45;100.00
56198;BME280;42700;42.524;12.052;2023-05-23T12:33:52;117508.69;;;33.56;100.00
56198;BME280;42700;42.524;12.052;2023-05-23T12:36:22;118024.50;;;33.79;100.00
56198;BME280;42700;42.524;12.052;2023-05-23T12:38:48;115918.16;;;33.07;100.00
56198;BME280;42700;42.524;12.052;2023-05-23T12:41:17;114895.69;;;32.65;100.00
56198;BME280;42700;42.524;12.052;2023-05-23T12:43:49;112822.25;;;31.83;100.00
56198;BME280;42700;42.524;12.052;2023-05-23T12:46:16;114348.88;;;32.19;100.00
56198;BME280;42700;42.524;12.052;2023-05-23T12:48:41;116984.00;;;33.21;100.00